AirNav   Air Wisconsin pilot careers
 
 1437 users online  

33S Pru Field Airport
Ritzville, Washington, USA

GOING TO RITZVILLE?


FAA INFORMATION EFFECTIVE 04 JANUARY 2018

Location

FAA Identifier: 33S
Lat/Long: 47-07-24.4300N / 118-23-21.5800W
47-07.407167N / 118-23.359667W
47.1234528 / -118.3893278
(estimated)
Elevation: 1801 ft. / 548.9 m (surveyed)
Variation: 19E (1985)
From city: 1 mile W of RITZVILLE, WA
Time zone: UTC -8 (UTC -7 during Daylight Saving Time)
Zip code: 99169

Airport Operations

Airport use: Open to the public
Activation date: 10/1945
Control tower: no
ARTCC: SEATTLE CENTER
FSS: SEATTLE FLIGHT SERVICE STATION
NOTAMs facility: SEA (NOTAM-D service available)
Attendance: UNATNDD
Wind indicator: lighted
Segmented circle: no
Lights: ACTVT MIRL RY 01/19 AND PAPI RYS 01 & 19 - CTAF.
Beacon: white-green (lighted land airport)
Operates sunset to sunrise.

Airport Communications

CTAF/UNICOM: 122.8

Nearby radio navigation aids

VOR radial/distance  VOR name  Freq  Var
MWHr080/38.2MOSES LAKE VOR/DME115.0018E

Airport Services

Parking: tiedowns
Airframe service: NONE
Powerplant service: NONE
Bottled oxygen: NONE
Bulk oxygen: NONE

Runway Information

Runway 1/19

Dimensions: 3433 x 40 ft. / 1046 x 12 m
Surface: asphalt, in good condition
Weight bearing capacity: 
Single wheel: 12.5
Runway edge lights: medium intensity
RUNWAY 1  RUNWAY 19
Latitude: 47-07.157500N47-07.657000N
Longitude: 118-23.552833W118-23.166500W
Elevation: 1783.0 ft.1801.0 ft.
Traffic pattern: leftleft
Runway heading: 009 magnetic, 028 true189 magnetic, 208 true
Displaced threshold: no820 ft.
Declared distances: TORA:2614 TODA:2614 ASDA:3433 LDA:3433TORA:3433 TODA:3433 ASDA:3433 LDA:2614
Markings: basic, in good conditionbasic, in good condition
Visual slope indicator: 2-light PAPI on left (4.00 degrees glide path)2-light PAPI on right (3.50 degrees glide path)
Touchdown point: yes, no lightsyes, no lights
Obstructions: 27 ft. pline, 1282 ft. from runway, 69 ft. right of centerline, 39:1 slope to clear43 ft. trees, 409 ft. from runway, 40 ft. left of centerline, 4:1 slope to clear

Airport Ownership and Management from official FAA records

Ownership: Publicly-owned
Owner: CITY OF RITZVILLE
216 E. MAIN
RITZVILLE, WA 99169-1417
Phone 509-659-1930
Manager: LARRY SWIFT
216 E. MAIN
RITZVILLE, WA 99169-1417
Phone 509-659-1930

Airport Operational Statistics

Aircraft based on the field: 2
Single engine airplanes: 2
    
Aircraft operations: avg 119/week *
79% transient general aviation
21% local general aviation
* for 12-month period ending 31 December 2015

Additional Remarks

ARPT CLSD WHEN SNOW/ICE ON RY.

Instrument Procedures

There are no published instrument procedures at 33S.

Some nearby airports with instrument procedures:

KMWH - Grant County International Airport (38 nm W)
2S8 - Wilbur Airport (40 nm N)
KSKA - Fairchild Air Force Base (42 nm NE)
KGEG - Spokane International Airport (46 nm NE)
KEPH - Ephrata Municipal Airport (47 nm W)
 
Loc | Ops | Rwys | IFR | FBO | Links
Com | Nav | Svcs | Stats | Notes


 
Area around 33S (Pru Field Airport)
 
Road maps at: MapQuest Bing Google
 
Aerial photo
WARNING: Photo may not be current or correct
Aerial photo of 33S (Pru Field Airport)
Photo by David Wyatt
Photo taken 22-Jun-2007

Do you have a better or more recent aerial photo of Pru Field Airport that you would like to share? If so, please send us your photo.

 
Sectional chart

 
Airport distance calculator
Flying to Pru Field Airport? Find the distance to fly.

From to 33S

Sunrise and sunset
Times for 19-Jan-2018
 Local
(UTC-8)
 Zulu
(UTC)
Morning civil twilight07:0015:00
Sunrise07:3315:33
Sunset16:3500:35
Evening civil twilight17:0901:09

Current date and time
Zulu (UTC)  19-Jan-2018 19:52:09
Local (UTC-8)  19-Jan-2018 11:52:09
 
METAR
KMWH 
38nm W 
191852Z 23003KT 10SM CLR 02/02 A2992 RMK AO2 SLP143 T00220017
KSKA 
42nm NE 
191856Z 00000KT 10SM SCT009 01/01 A2987 RMK AO2A SLP137 T00080008 $
KGEG 
46nm NE 
191853Z 21007KT 10SM SCT011 SCT090 BKN180 02/00 A2989 RMK AO2 SLP136 T00170000
KEPH 
47nm W 
191919Z AUTO 00000KT 10SM OVC005 02/M01 A2991 RMK AO2 T00171011
TAF
KMWH 
38nm W 
191740Z 1918/2018 34004KT 3SM BR SCT001 FM191900 21009KT P6SM FEW006 SCT100 BKN200 FM200200 18006KT P6SM VCSH BKN050 OVC080 FM200700 18005KT P6SM SCT100 BKN200 FM201200 VRB03KT 5SM BR SCT001 BKN080
KSKA 
42nm NE 
191705Z 1917/2017 19009KT 6000 BR OVC003 620039 QNH2981INS TEMPO 1917/1919 OVC007 BECMG 1918/1919 19009KT 8000 BR SCT003 OVC020 620209 QNH2984INS BECMG 1920/1921 19009KT 8000 BR FEW003 OVC020 620209 QNH2984INS BECMG 2005/2006 20009KT 9000 -SN BKN020 620209 QNH2985INS TEMPO 2011/2017 BKN010 TX03/1922Z TNM01/1917Z
KGEG 
46nm NE 
191755Z 1918/2018 21008KT P6SM SCT009 BKN070 FM192000 20009KT P6SM SCT015 BKN025 BKN090 TEMPO 1920/1922 BKN015 OVC025 FM200100 19007KT P6SM SCT015 BKN080 FM200500 18009KT P6SM BKN015 OVC050 FM200700 18010KT 1 1/2SM -SN BR OVC008 FM201100 19010KT 3SM BR OVC005
NOTAMs
Click for the latest NOTAMs
NOTAMs are issued by the DoD/FAA and will open in a separate window not controlled by AirNav.

 

 
 

Would you like to see your business listed on this page?

 If your business provides an interesting product or service to pilots, flight crews, aircraft, or users of the Pru Field Airport, you should consider listing it here.  To start the listing process, click on the button below
 
Add a business
 

Other Pages about Pru Field Airport

Update a link
 
Copyright © AirNav, LLC. All rights reserved. Privacy Policy  Contact